createdAt,value
2022-11-14T00:00:59.905Z,22.00
2022-11-14T00:03:49.277Z,21.90
2022-11-14T00:06:35.790Z,22.00
2022-11-14T00:09:25.981Z,21.90
2022-11-14T00:12:13.113Z,21.90
2022-11-14T00:15:00.217Z,21.90
2022-11-14T00:17:47.006Z,21.90
2022-11-14T00:20:34.112Z,21.90
2022-11-14T00:23:22.021Z,21.90
2022-11-14T00:26:08.475Z,22.00
2022-11-14T00:28:55.643Z,22.00
2022-11-14T00:31:42.193Z,21.90
2022-11-14T00:34:28.821Z,21.90
2022-11-14T00:37:15.129Z,21.90
2022-11-14T00:40:01.275Z,21.90
2022-11-14T00:42:47.621Z,21.90
2022-11-14T00:45:33.945Z,21.90
2022-11-14T00:48:20.287Z,21.90
2022-11-14T00:51:06.754Z,21.90
2022-11-14T00:53:53.123Z,21.90
2022-11-14T00:56:39.650Z,21.90
2022-11-14T00:59:25.940Z,21.90
2022-11-14T01:02:12.508Z,21.90
2022-11-14T01:04:58.929Z,21.90
2022-11-14T01:07:45.793Z,21.80
2022-11-14T01:10:32.234Z,21.90
2022-11-14T01:13:19.722Z,21.90
2022-11-14T01:16:07.087Z,21.90
2022-11-14T01:18:53.450Z,21.90
2022-11-14T01:21:39.774Z,21.80
2022-11-14T01:24:25.870Z,21.80
2022-11-14T01:27:12.057Z,21.90
2022-11-14T01:29:58.510Z,21.90
2022-11-14T01:32:44.667Z,21.90
2022-11-14T01:35:52.304Z,21.90
2022-11-14T01:38:38.976Z,21.80
2022-11-14T01:41:25.630Z,21.80
2022-11-14T01:44:17.582Z,21.80
2022-11-14T01:47:04.904Z,21.80
2022-11-14T01:49:55.138Z,21.80
2022-11-14T01:52:41.717Z,21.80
2022-11-14T01:55:28.014Z,21.80
2022-11-14T01:58:15.768Z,21.80
2022-11-14T02:01:02.584Z,21.80
2022-11-14T02:03:51.904Z,21.80
2022-11-14T02:06:39.412Z,21.80
2022-11-14T02:09:28.540Z,21.80
2022-11-14T02:12:17.543Z,21.80
2022-11-14T02:15:04.311Z,21.90
2022-11-14T02:17:50.616Z,21.80
2022-11-14T02:20:43.135Z,21.80
2022-11-14T02:23:31.836Z,21.90
2022-11-14T02:26:22.068Z,21.80
2022-11-14T02:29:11.004Z,21.80
2022-11-14T02:31:57.396Z,21.80
2022-11-14T02:34:43.836Z,21.90
2022-11-14T02:37:30.407Z,21.80
2022-11-14T02:40:17.140Z,21.80
2022-11-14T02:43:03.218Z,21.80
2022-11-14T02:45:49.272Z,21.80
2022-11-14T02:48:35.642Z,21.90
2022-11-14T02:51:22.164Z,21.80
2022-11-14T02:54:08.950Z,21.80
2022-11-14T02:56:54.889Z,21.80
2022-11-14T02:59:41.104Z,21.80
2022-11-14T03:02:27.504Z,21.80
2022-11-14T03:05:14.050Z,21.80
2022-11-14T03:08:00.533Z,21.80
2022-11-14T03:10:46.963Z,21.80
2022-11-14T03:13:33.599Z,21.80
2022-11-14T03:16:20.182Z,21.80
2022-11-14T03:19:06.873Z,21.80
2022-11-14T03:21:53.475Z,21.80
2022-11-14T03:24:40.041Z,21.80
2022-11-14T03:27:26.387Z,21.80
2022-11-14T03:30:12.830Z,21.80
2022-11-14T03:32:59.054Z,21.80
2022-11-14T03:35:45.365Z,21.80
2022-11-14T03:38:32.218Z,21.80
2022-11-14T03:41:19.227Z,21.80
2022-11-14T03:44:05.356Z,21.80
2022-11-14T03:46:52.776Z,21.80
2022-11-14T03:49:39.070Z,21.80
2022-11-14T03:52:26.313Z,21.80
2022-11-14T03:55:12.928Z,21.80
2022-11-14T03:57:59.598Z,21.80
2022-11-14T04:00:46.227Z,21.80
2022-11-14T04:03:32.815Z,21.80
2022-11-14T04:06:19.305Z,21.80
2022-11-14T04:09:06.509Z,21.80
2022-11-14T04:11:52.969Z,21.80
2022-11-14T04:14:39.748Z,21.80
2022-11-14T04:17:26.367Z,21.80
2022-11-14T04:20:14.665Z,21.80
2022-11-14T04:23:01.279Z,21.80
2022-11-14T04:25:48.181Z,21.80
2022-11-14T04:28:34.781Z,21.80
2022-11-14T04:31:21.578Z,21.80
2022-11-14T04:34:08.205Z,21.80
2022-11-14T04:36:54.648Z,21.80
2022-11-14T04:39:41.549Z,21.80
2022-11-14T04:42:28.403Z,21.80
2022-11-14T04:45:15.333Z,21.80
2022-11-14T04:48:02.195Z,21.80
2022-11-14T04:50:48.956Z,21.80
2022-11-14T04:53:35.737Z,21.80
2022-11-14T04:56:23.371Z,21.80
2022-11-14T04:59:10.009Z,21.80
2022-11-14T05:01:56.805Z,21.80
2022-11-14T05:04:45.830Z,21.80
2022-11-14T05:07:32.580Z,21.80
2022-11-14T05:10:18.856Z,21.80
2022-11-14T05:13:05.538Z,21.90
2022-11-14T05:15:52.264Z,22.00
2022-11-14T05:18:42.942Z,22.10
2022-11-14T05:21:33.356Z,22.20
2022-11-14T05:24:20.045Z,22.20
2022-11-14T05:27:06.885Z,22.30
2022-11-14T05:29:55.385Z,22.30
2022-11-14T05:32:41.814Z,22.40
2022-11-14T05:35:28.309Z,22.50
2022-11-14T05:38:14.960Z,22.60
2022-11-14T05:41:12.573Z,22.60
2022-11-14T05:43:59.556Z,22.70
2022-11-14T05:46:46.148Z,22.80
2022-11-14T05:49:32.736Z,22.80
2022-11-14T05:52:19.298Z,22.90
2022-11-14T05:55:06.202Z,22.90
2022-11-14T05:57:52.955Z,22.90
2022-11-14T06:00:46.522Z,23.00
2022-11-14T06:03:40.493Z,23.10
2022-11-14T06:06:27.303Z,23.10
2022-11-14T06:09:13.957Z,23.10
2022-11-14T06:12:00.855Z,23.20
2022-11-14T06:14:47.137Z,23.20
2022-11-14T06:17:33.723Z,23.30
2022-11-14T06:20:21.259Z,23.40
2022-11-14T06:23:08.029Z,23.20
2022-11-14T06:26:00.696Z,22.60
2022-11-14T06:28:49.494Z,22.40
2022-11-14T06:31:35.772Z,22.30
2022-11-14T06:34:22.384Z,22.10
2022-11-14T06:37:09.142Z,21.80
2022-11-14T06:39:55.791Z,21.70
2022-11-14T06:42:42.472Z,21.30
2022-11-14T06:45:29.434Z,20.80
2022-11-14T06:48:16.246Z,20.70
2022-11-14T06:51:05.088Z,20.80
2022-11-14T06:53:51.797Z,20.90
2022-11-14T06:56:38.767Z,20.80
2022-11-14T06:59:25.599Z,21.00
2022-11-14T07:02:17.764Z,21.40
2022-11-14T07:05:08.058Z,21.80
2022-11-14T07:07:54.626Z,22.10
2022-11-14T07:10:41.608Z,22.30
2022-11-14T07:13:28.050Z,22.50
2022-11-14T07:16:15.107Z,22.60
2022-11-14T07:19:04.160Z,22.80
2022-11-14T07:21:52.887Z,22.90
2022-11-14T07:24:39.346Z,23.10
2022-11-14T07:27:25.698Z,23.20
2022-11-14T07:30:12.561Z,23.30
2022-11-14T07:32:59.264Z,23.40
2022-11-14T07:35:46.218Z,23.50
2022-11-14T07:38:34.802Z,23.70
2022-11-14T07:41:22.545Z,23.80
2022-11-14T07:44:09.258Z,23.80
2022-11-14T07:46:56.033Z,23.90
2022-11-14T07:49:42.432Z,24.00
2022-11-14T07:52:31.510Z,24.00
2022-11-14T07:55:18.911Z,24.10
2022-11-14T07:58:05.930Z,24.20
2022-11-14T08:00:52.396Z,24.30
2022-11-14T08:03:45.054Z,24.30
2022-11-14T08:06:32.098Z,24.30
2022-11-14T08:09:18.818Z,24.40
2022-11-14T08:12:05.858Z,24.30
2022-11-14T08:14:52.062Z,24.30
2022-11-14T08:17:39.326Z,24.30
2022-11-14T08:20:26.972Z,24.20
2022-11-14T08:23:13.693Z,24.10
2022-11-14T08:26:00.543Z,24.10
2022-11-14T08:28:48.836Z,24.10
2022-11-14T08:31:35.794Z,24.20
2022-11-14T08:34:23.777Z,24.20
2022-11-14T08:37:11.735Z,24.30
2022-11-14T08:39:58.470Z,24.40
2022-11-14T08:42:44.987Z,24.50
2022-11-14T08:45:31.955Z,24.50
2022-11-14T08:48:18.642Z,24.50
2022-11-14T08:51:07.065Z,24.40
2022-11-14T08:53:53.931Z,24.40
2022-11-14T08:56:40.532Z,24.30
2022-11-14T08:59:27.174Z,24.30
2022-11-14T09:02:14.489Z,24.30
2022-11-14T09:05:01.628Z,24.30
2022-11-14T09:07:48.282Z,24.30
2022-11-14T09:10:35.518Z,24.30
2022-11-14T09:13:22.834Z,24.30
2022-11-14T09:16:09.480Z,24.30
2022-11-14T09:18:56.015Z,24.30
2022-11-14T09:21:42.951Z,24.40
2022-11-14T09:24:29.269Z,24.50
2022-11-14T09:27:16.192Z,24.60
2022-11-14T09:30:02.917Z,24.60
2022-11-14T09:32:49.847Z,24.60
2022-11-14T09:35:38.389Z,24.60
2022-11-14T09:38:25.149Z,24.60
2022-11-14T09:41:42.041Z,24.50
2022-11-14T09:44:43.494Z,24.50
2022-11-14T09:47:36.272Z,24.40
2022-11-14T09:50:30.860Z,24.40
2022-11-14T09:53:31.456Z,24.40
2022-11-14T09:56:24.882Z,24.30
2022-11-14T09:59:13.017Z,24.30
2022-11-14T10:02:31.003Z,24.30
2022-11-14T10:05:40.147Z,24.30
2022-11-14T10:08:53.641Z,24.30
2022-11-14T10:12:04.569Z,24.30
2022-11-14T10:15:07.737Z,24.30
2022-11-14T10:18:12.111Z,24.30
2022-11-14T10:21:11.038Z,24.30
2022-11-14T10:24:23.834Z,24.30
2022-11-14T10:27:20.524Z,24.30
2022-11-14T10:30:18.782Z,24.30
2022-11-14T10:33:23.170Z,24.20
2022-11-14T10:36:16.300Z,24.30
2022-11-14T10:39:23.982Z,24.20
2022-11-14T10:42:34.863Z,24.20
2022-11-14T10:45:38.546Z,24.30
2022-11-14T10:48:36.125Z,24.30
2022-11-14T10:51:44.793Z,24.30
2022-11-14T10:54:51.526Z,24.50
2022-11-14T10:57:38.254Z,24.50
2022-11-14T11:00:24.961Z,24.60
2022-11-14T11:03:11.853Z,24.70
2022-11-14T11:05:58.423Z,24.60
2022-11-14T11:09:03.769Z,24.60
2022-11-14T11:11:59.143Z,24.60
2022-11-14T11:14:47.784Z,24.60
2022-11-14T11:17:40.067Z,24.60
2022-11-14T11:20:36.592Z,24.60
2022-11-14T11:23:27.361Z,24.60
2022-11-14T11:26:23.301Z,24.50
2022-11-14T11:29:12.593Z,24.50
2022-11-14T11:31:59.835Z,24.50
2022-11-14T11:34:47.036Z,24.50
2022-11-14T11:37:40.449Z,24.40
2022-11-14T11:40:29.269Z,24.40
2022-11-14T11:43:46.032Z,24.40
2022-11-14T11:46:48.658Z,24.40
2022-11-14T11:49:52.932Z,24.30
2022-11-14T11:52:49.584Z,24.40
2022-11-14T11:55:44.343Z,24.40
2022-11-14T11:58:37.824Z,24.40
2022-11-14T12:01:24.923Z,24.40
2022-11-14T12:04:11.898Z,24.40
2022-11-14T12:07:29.405Z,24.40
2022-11-14T12:10:26.216Z,24.50
2022-11-14T12:13:36.992Z,24.50
2022-11-14T12:17:00.834Z,24.40
2022-11-14T12:20:21.434Z,24.70
2022-11-14T12:23:26.640Z,25.20
2022-11-14T12:26:44.897Z,25.60
2022-11-14T12:29:43.249Z,25.30
2022-11-14T12:32:46.580Z,25.10
2022-11-14T12:35:35.877Z,25.00
2022-11-14T12:38:23.404Z,25.00
2022-11-14T12:41:10.816Z,25.00
2022-11-14T12:44:27.878Z,25.10
2022-11-14T12:47:18.899Z,25.10
2022-11-14T12:50:26.500Z,25.20
2022-11-14T12:53:42.974Z,25.20
2022-11-14T12:56:29.629Z,25.30
2022-11-14T12:59:50.234Z,25.40
2022-11-14T13:02:53.450Z,25.50
2022-11-14T13:05:58.020Z,25.60
2022-11-14T13:08:58.098Z,25.80
2022-11-14T13:12:05.198Z,25.90
2022-11-14T13:15:12.977Z,26.10
2022-11-14T13:18:42.694Z,26.30
2022-11-14T13:21:48.541Z,26.50
2022-11-14T13:24:59.674Z,26.60
2022-11-14T13:31:42.354Z,27.00
2022-11-14T13:34:51.381Z,27.20
2022-11-14T13:38:14.870Z,27.20
2022-11-14T13:41:07.506Z,27.30
2022-11-14T13:44:13.844Z,27.30
2022-11-14T13:47:28.405Z,27.20
2022-11-14T13:50:19.062Z,27.00
2022-11-14T13:53:19.303Z,26.90
2022-11-14T13:56:12.030Z,26.80
2022-11-14T13:59:14.645Z,26.60
2022-11-14T14:02:19.690Z,26.40
2022-11-14T14:05:15.030Z,26.30
2022-11-14T14:08:31.560Z,26.20
2022-11-14T14:11:27.941Z,26.10
2022-11-14T14:14:23.042Z,26.00
2022-11-14T14:17:26.151Z,26.00
2022-11-14T14:20:40.198Z,25.90
2022-11-14T14:23:58.363Z,25.80
2022-11-14T14:26:47.595Z,25.80
2022-11-14T14:29:37.440Z,25.70
2022-11-14T14:32:25.091Z,25.70
2022-11-14T14:35:32.551Z,25.60
2022-11-14T14:38:27.023Z,25.60
2022-11-14T14:41:16.928Z,25.60
2022-11-14T14:44:03.752Z,25.60
2022-11-14T14:46:50.836Z,25.60
2022-11-14T14:49:38.990Z,25.50
2022-11-14T14:57:02.787Z,25.50
2022-11-14T15:00:00.451Z,25.40
2022-11-14T15:02:47.122Z,25.40
2022-11-14T15:05:33.845Z,25.30
2022-11-14T15:08:20.333Z,25.40
2022-11-14T15:11:08.108Z,25.30
2022-11-14T15:13:58.584Z,25.30
2022-11-14T15:16:47.108Z,25.20
2022-11-14T15:19:43.135Z,25.20
2022-11-14T15:22:29.693Z,25.20
2022-11-14T15:25:18.780Z,25.10
2022-11-14T15:28:19.877Z,25.10
2022-11-14T15:31:06.653Z,25.10
2022-11-14T15:34:05.601Z,25.00
2022-11-14T15:37:08.720Z,25.10
2022-11-14T15:40:17.256Z,25.00
2022-11-14T15:43:38.146Z,25.00
2022-11-14T15:46:33.751Z,25.00
2022-11-14T15:49:24.185Z,24.90
2022-11-14T15:52:23.902Z,24.90
2022-11-14T15:55:19.050Z,24.80
2022-11-14T15:58:29.064Z,24.80
2022-11-14T16:01:22.884Z,24.80
2022-11-14T16:04:18.257Z,24.80
2022-11-14T16:07:05.325Z,24.80
2022-11-14T16:09:51.990Z,24.80
2022-11-14T16:12:38.709Z,24.80
2022-11-14T16:15:25.188Z,24.70
2022-11-14T16:18:12.487Z,24.70
2022-11-14T16:20:59.783Z,24.70
2022-11-14T16:23:46.575Z,24.60
2022-11-14T16:26:33.107Z,24.70
2022-11-14T16:29:19.934Z,24.60
2022-11-14T16:32:09.244Z,24.60
2022-11-14T16:34:55.888Z,24.60
2022-11-14T16:37:42.761Z,24.50
2022-11-14T16:40:29.744Z,24.50
2022-11-14T16:43:16.345Z,24.50
2022-11-14T16:46:07.553Z,24.50
2022-11-14T16:48:55.430Z,24.40
2022-11-14T16:51:48.167Z,24.40
2022-11-14T16:54:35.707Z,24.40
2022-11-14T16:57:23.238Z,24.30
2022-11-14T17:00:12.508Z,24.30
2022-11-14T17:02:59.405Z,24.30
2022-11-14T17:05:51.287Z,24.30
2022-11-14T17:08:38.779Z,24.30
2022-11-14T17:11:26.353Z,24.30
2022-11-14T17:14:13.366Z,24.30
2022-11-14T17:17:03.177Z,24.30
2022-11-14T17:19:50.165Z,24.20
2022-11-14T17:22:36.676Z,24.20
2022-11-14T17:25:23.860Z,24.20
2022-11-14T17:28:10.545Z,24.20
2022-11-14T17:30:57.196Z,24.20
2022-11-14T17:33:43.615Z,24.20
2022-11-14T17:36:31.107Z,24.10
2022-11-14T17:39:17.752Z,24.10
2022-11-14T17:42:05.484Z,24.10
2022-11-14T17:44:51.909Z,24.10
2022-11-14T17:47:38.468Z,24.10
2022-11-14T17:50:25.223Z,24.10
2022-11-14T17:53:11.647Z,24.10
2022-11-14T17:55:58.160Z,24.10
2022-11-14T17:58:45.989Z,24.00
2022-11-14T18:01:32.459Z,24.00
2022-11-14T18:04:19.231Z,24.00
2022-11-14T18:07:05.985Z,23.90
2022-11-14T18:09:52.246Z,23.90
2022-11-14T18:12:38.970Z,23.90
2022-11-14T18:15:28.201Z,24.00
2022-11-14T18:18:15.044Z,23.90
2022-11-14T18:21:08.849Z,23.90
2022-11-14T18:23:58.056Z,23.90
2022-11-14T18:26:44.634Z,23.90
2022-11-14T18:29:31.396Z,23.80
2022-11-14T18:32:18.402Z,23.80
2022-11-14T18:35:05.654Z,23.90
2022-11-14T18:37:52.142Z,23.80
2022-11-14T18:40:38.643Z,23.80
2022-11-14T18:43:25.417Z,23.80
2022-11-14T18:46:21.770Z,23.80
2022-11-14T18:49:08.593Z,23.80
2022-11-14T18:51:56.534Z,23.80
2022-11-14T18:54:43.227Z,23.80
2022-11-14T18:57:30.134Z,23.70
2022-11-14T19:00:17.192Z,23.80
2022-11-14T19:03:06.220Z,23.80
2022-11-14T19:05:53.117Z,23.70
2022-11-14T19:08:40.513Z,23.70
2022-11-14T19:11:45.882Z,23.70
2022-11-14T19:14:32.775Z,23.70
2022-11-14T19:17:21.111Z,23.70
2022-11-14T19:20:13.994Z,23.70
2022-11-14T19:23:00.949Z,23.70
2022-11-14T19:25:47.220Z,23.70
2022-11-14T19:28:33.890Z,23.70
2022-11-14T19:31:22.276Z,23.60
2022-11-14T19:34:09.784Z,23.60
2022-11-14T19:37:01.025Z,23.60
2022-11-14T19:39:48.014Z,23.60
2022-11-14T19:42:34.798Z,23.60
2022-11-14T19:45:21.292Z,23.60
2022-11-14T19:48:07.975Z,23.60
2022-11-14T19:51:06.188Z,23.50
2022-11-14T19:53:53.969Z,23.60
2022-11-14T19:56:40.579Z,23.60
2022-11-14T19:59:28.860Z,23.50
2022-11-14T20:02:15.579Z,23.50
2022-11-14T20:05:02.102Z,23.50
2022-11-14T20:07:48.906Z,23.50
2022-11-14T20:10:48.002Z,23.50
2022-11-14T20:13:37.369Z,23.40
2022-11-14T20:16:28.035Z,23.50
2022-11-14T20:19:14.720Z,23.40
2022-11-14T20:22:01.302Z,23.40
2022-11-14T20:24:47.609Z,23.40
2022-11-14T20:27:33.933Z,23.40
2022-11-14T20:30:20.723Z,23.40
2022-11-14T20:33:08.573Z,23.40
2022-11-14T20:35:55.162Z,23.30
2022-11-14T20:38:42.565Z,23.30
2022-11-14T20:41:29.438Z,23.30
2022-11-14T20:44:16.602Z,23.30
2022-11-14T20:47:07.121Z,23.30
2022-11-14T20:49:56.304Z,23.30
2022-11-14T20:52:42.804Z,23.30
2022-11-14T20:55:29.503Z,23.30
2022-11-14T20:58:16.191Z,23.30
2022-11-14T21:01:03.155Z,23.30
2022-11-14T21:03:49.651Z,23.30
2022-11-14T21:06:35.897Z,23.30
2022-11-14T21:09:22.212Z,23.30
2022-11-14T21:12:08.514Z,23.30
2022-11-14T21:14:55.280Z,23.30
2022-11-14T21:17:41.748Z,23.30
2022-11-14T21:20:28.176Z,23.20
2022-11-14T21:23:14.732Z,23.20
2022-11-14T21:26:15.958Z,23.20
2022-11-14T21:29:05.943Z,23.20
2022-11-14T21:31:52.622Z,23.20
2022-11-14T21:34:39.154Z,23.20
2022-11-14T21:37:25.485Z,23.20
2022-11-14T21:40:12.476Z,23.20
2022-11-14T21:42:59.540Z,23.20
2022-11-14T21:45:54.979Z,23.20
2022-11-14T21:48:42.025Z,23.20
2022-11-14T21:51:29.093Z,23.20
2022-11-14T21:54:15.646Z,23.20
2022-11-14T21:57:05.611Z,23.10
2022-11-14T21:59:56.279Z,23.10
2022-11-14T22:03:01.733Z,23.10
2022-11-14T22:05:47.872Z,23.10
2022-11-14T22:08:34.159Z,23.10
2022-11-14T22:11:21.635Z,23.10
2022-11-14T22:14:08.254Z,23.10
2022-11-14T22:16:54.819Z,23.10
2022-11-14T22:19:41.514Z,23.10
2022-11-14T22:22:27.836Z,23.10
2022-11-14T22:25:14.447Z,23.10
2022-11-14T22:28:00.858Z,23.10
2022-11-14T22:30:47.250Z,23.10
2022-11-14T22:33:35.588Z,23.10
2022-11-14T22:36:24.080Z,23.00
2022-11-14T22:39:10.634Z,23.00
2022-11-14T22:41:56.954Z,23.10
2022-11-14T22:44:43.523Z,23.00
2022-11-14T22:47:30.400Z,23.00
2022-11-14T22:50:16.916Z,23.00
2022-11-14T22:53:03.491Z,23.00
2022-11-14T22:55:49.764Z,23.00
2022-11-14T22:58:38.386Z,23.00
2022-11-14T23:01:31.943Z,23.00
2022-11-14T23:04:18.530Z,23.00
2022-11-14T23:07:05.052Z,22.90
2022-11-14T23:09:51.307Z,23.00
2022-11-14T23:12:37.505Z,23.00
2022-11-14T23:15:23.892Z,22.90
2022-11-14T23:18:09.967Z,23.00
2022-11-14T23:20:56.849Z,22.90
2022-11-14T23:23:43.426Z,22.90
2022-11-14T23:26:31.094Z,22.90
2022-11-14T23:29:17.331Z,22.90
2022-11-14T23:32:03.656Z,22.90
2022-11-14T23:34:50.143Z,22.90
2022-11-14T23:37:36.397Z,22.90
2022-11-14T23:40:22.504Z,22.90
2022-11-14T23:43:08.709Z,22.90
2022-11-14T23:45:55.239Z,22.90
2022-11-14T23:48:41.713Z,22.90
2022-11-14T23:51:28.579Z,22.90
2022-11-14T23:54:14.766Z,22.90
2022-11-14T23:57:04.364Z,22.90
2022-11-14T23:59:50.819Z,22.90
